Time;durP1;ratioP1;P1;durP2;ratioP2;P2;SDS_P1;SDS_P2;PMS_P1;PMS_P2;Temp;Humidity;BMP_temperature;BMP_pressure;BME280_temperature;BME280_humidity;BME280_pressure;Samples;Min_cycle;Max_cycle;Signal;HPM_P1;HPM_P2
2022/10/23 00:01:15;;;;;;;14.80;9.52;;;;;;;9.28;86.12;97237.34;5025980;28;20045;-61
2022/10/23 00:03:43;;;;;;;15.68;9.20;;;;;;;9.46;85.48;97232.25;5026325;28;20712;-60
2022/10/23 00:06:11;;;;;;;19.35;9.88;;;;;;;9.54;85.54;97229.31;5026032;28;20535;-61
2022/10/23 00:08:39;;;;;;;18.85;9.68;;;;;;;9.84;85.92;97277.47;5026212;28;20053;-61
2022/10/23 00:11:14;;;;;;;21.25;10.45;;;;;;;9.97;84.95;97276.19;5025854;28;20140;-63
2022/10/23 00:13:41;;;;;;;22.60;11.50;;;;;;;9.52;85.93;97275.88;5026170;28;20480;-61
2022/10/23 00:16:08;;;;;;;33.42;13.68;;;;;;;9.79;85.41;97291.56;5026021;28;20080;-60
2022/10/23 00:18:36;;;;;;;26.38;12.90;;;;;;;9.19;86.46;97267.13;5024766;28;20049;-60
2022/10/23 00:21:04;;;;;;;26.88;11.98;;;;;;;9.33;85.76;97248.16;5025806;28;20131;-59
2022/10/23 00:23:31;;;;;;;20.35;10.65;;;;;;;9.53;85.96;97271.94;5025505;28;20085;-58
2022/10/23 00:25:57;;;;;;;23.88;11.07;;;;;;;9.64;87.01;97261.94;5025916;28;20092;-61
2022/10/23 00:28:24;;;;;;;13.68;9.10;;;;;;;9.41;87.37;97227.00;5025852;28;20080;-60
2022/10/23 00:30:51;;;;;;;16.15;9.25;;;;;;;9.52;88.84;97259.28;5024014;28;20115;-58
2022/10/23 00:33:17;;;;;;;19.10;9.20;;;;;;;9.47;89.72;97251.25;5025791;28;20053;-58
2022/10/23 00:35:44;;;;;;;18.52;9.80;;;;;;;9.52;89.20;97253.75;5025899;28;20057;-59
2022/10/23 00:38:11;;;;;;;12.70;9.00;;;;;;;9.66;88.23;97256.84;5023972;28;20603;-59
2022/10/23 00:40:41;;;;;;;15.40;10.23;;;;;;;9.74;87.54;97255.88;5025470;28;20080;-58
2022/10/23 00:43:19;;;;;;;15.85;9.90;;;;;;;9.41;87.42;97196.59;5025759;28;20132;-63
2022/10/23 00:45:46;;;;;;;17.10;9.90;;;;;;;9.79;87.35;97252.81;5024289;28;20144;-61
2022/10/23 00:48:13;;;;;;;17.88;10.73;;;;;;;9.90;86.50;97264.94;5023853;28;20072;-61
2022/10/23 00:50:40;;;;;;;19.70;10.85;;;;;;;9.87;85.17;97267.63;5023716;28;20248;-59
2022/10/23 00:53:10;;;;;;;19.80;10.80;;;;;;;9.81;84.48;97260.75;5025464;28;20049;-59
2022/10/23 00:55:40;;;;;;;19.40;11.15;;;;;;;9.59;85.07;97273.28;5023698;28;21101;-58
2022/10/23 00:58:06;;;;;;;18.45;11.68;;;;;;;9.51;85.70;97260.47;5025445;28;20138;-60
2022/10/23 01:00:49;;;;;;;20.13;11.60;;;;;;;9.59;85.41;97253.94;5025183;28;20144;-58
2022/10/23 01:03:17;;;;;;;19.55;12.52;;;;;;;9.50;85.64;97256.06;5025306;28;20543;-60
2022/10/23 01:06:04;;;;;;;20.08;10.77;;;;;;;9.00;85.54;97175.84;5023417;28;20136;-59
2022/10/23 01:08:45;;;;;;;18.30;10.70;;;;;;;9.31;86.00;97220.06;5024805;28;20049;-61
2022/10/23 01:11:29;;;;;;;20.48;11.27;;;;;;;9.43;87.65;97255.91;5023523;28;20136;-62
2022/10/23 01:14:00;;;;;;;19.00;11.77;;;;;;;9.52;87.05;97259.28;5025294;28;20100;-61
2022/10/23 01:16:40;;;;;;;17.55;10.35;;;;;;;9.58;88.02;97257.84;5025016;28;20495;-60
2022/10/23 01:19:26;;;;;;;35.25;14.52;;;;;;;9.54;88.11;97261.69;5024971;28;20084;-59
2022/10/23 01:22:17;;;;;;;31.23;13.45;;;;;;;9.36;88.22;97255.72;5025142;28;20491;-59
2022/10/23 01:24:43;;;;;;;22.95;11.40;;;;;;;9.48;87.89;97263.94;5024973;28;20060;-60
2022/10/23 01:27:23;;;;;;;18.60;11.38;;;;;;;9.60;88.37;97266.59;5024929;28;20542;-61
2022/10/23 01:30:19;;;;;;;23.05;11.93;;;;;;;9.68;88.35;97260.06;5023250;28;20088;-61
2022/10/23 01:33:03;;;;;;;21.15;11.40;;;;;;;9.21;89.51;97259.31;5024207;28;20496;-61
2022/10/23 01:35:39;;;;;;;33.92;14.85;;;;;;;9.34;89.21;97248.97;5024958;28;20099;-61
2022/10/23 01:38:26;;;;;;;25.05;11.77;;;;;;;8.68;89.22;97146.63;5024816;28;20692;-64
2022/10/23 01:41:01;;;;;;;23.75;12.50;;;;;;;9.30;88.56;97235.03;5024520;28;20535;-61
2022/10/23 01:43:42;;;;;;;22.13;10.07;;;;;;;9.38;89.39;97264.47;5024720;28;20076;-61
2022/10/23 01:46:13;;;;;;;30.30;13.57;;;;;;;9.22;89.39;97238.78;5024667;28;20049;-61
2022/10/23 01:48:45;;;;;;;22.83;11.55;;;;;;;9.31;90.52;97239.41;5004915;28;20144;-60
2022/10/23 01:51:13;;;;;;;18.95;9.98;;;;;;;9.55;92.04;97266.88;5004963;28;20094;-61
2022/10/23 01:53:42;;;;;;;17.88;10.77;;;;;;;9.57;90.90;97261.78;5005374;28;20050;-61
2022/10/23 01:56:17;;;;;;;18.23;9.88;;;;;;;9.74;90.41;97278.00;5005293;28;20184;-61
2022/10/23 01:58:47;;;;;;;16.70;10.75;;;;;;;9.80;89.35;97243.34;5004068;28;20084;-61
2022/10/23 02:01:17;;;;;;;17.25;9.85;;;;;;;9.90;89.31;97259.41;5004919;28;20057;-59
2022/10/23 02:03:44;;;;;;;13.55;9.15;;;;;;;10.06;88.21;97268.47;5004806;28;20054;-61
2022/10/23 02:06:11;;;;;;;12.38;8.95;;;;;;;10.11;87.62;97275.72;5004610;28;20643;-60
2022/10/23 02:08:38;;;;;;;23.13;10.70;;;;;;;9.98;88.84;97261.19;5004890;28;20119;-60
2022/10/23 02:11:10;;;;;;;25.05;12.68;;;;;;;9.83;86.78;97266.75;5004428;28;20229;-61
2022/10/23 02:14:02;;;;;;;28.83;14.10;;;;;;;9.51;89.04;97265.19;5004694;28;20093;-62
2022/10/23 02:16:40;;;;;;;24.77;12.48;;;;;;;8.95;89.68;97195.47;5019964;28;20132;-61
2022/10/23 02:19:16;;;;;;;22.35;11.35;;;;;;;9.05;89.54;97266.78;5004558;28;20630;-60
2022/10/23 02:21:55;;;;;;;30.27;13.75;;;;;;;9.05;90.78;97272.31;5004741;28;20078;-62
2022/10/23 02:24:31;;;;;;;23.13;11.88;;;;;;;8.81;91.64;97264.16;5019765;28;20056;-60
2022/10/23 02:27:09;;;;;;;25.80;12.63;;;;;;;8.83;91.51;97275.66;5004589;28;20056;-60
2022/10/23 02:29:41;;;;;;;20.75;12.05;;;;;;;8.32;91.50;97166.16;5004480;28;20141;-61
2022/10/23 02:32:09;;;;;;;20.42;11.32;;;;;;;8.83;91.08;97223.16;5008033;28;20108;-61
2022/10/23 02:34:36;;;;;;;19.33;11.20;;;;;;;9.01;91.85;97228.00;5007905;28;20066;-59
2022/10/23 02:37:03;;;;;;;25.17;11.30;;;;;;;9.34;91.76;97277.41;5008249;28;20143;-58
2022/10/23 02:39:30;;;;;;;31.33;14.65;;;;;;;9.27;90.79;97252.34;5008277;28;20092;-60
2022/10/23 02:42:03;;;;;;;22.40;10.32;;;;;;;9.03;91.02;97296.72;5008391;28;20582;-59
2022/10/23 02:44:42;;;;;;;17.80;10.35;;;;;;;9.04;91.08;97298.34;5008163;28;20529;-60
2022/10/23 02:47:49;;;;;;;20.30;11.02;;;;;;;9.01;91.49;97304.53;5015634;28;20583;-61
2022/10/23 02:50:32;;;;;;;20.27;11.27;;;;;;;8.76;93.44;97297.53;5021003;28;20103;-58
2022/10/23 02:53:22;;;;;;;19.80;11.03;;;;;;;8.90;92.68;97292.41;5028184;28;20085;-61
2022/10/23 02:56:02;;;;;;;23.23;10.82;;;;;;;9.02;92.26;97308.94;4940246;28;20149;-58
2022/10/23 02:58:35;;;;;;;21.80;11.40;;;;;;;9.11;92.27;97281.94;5007465;28;20524;-58
2022/10/23 03:01:08;;;;;;;20.27;10.70;;;;;;;9.13;95.27;97301.72;5008055;28;20096;-61
2022/10/23 03:03:41;;;;;;;19.95;11.38;;;;;;;8.77;95.53;97274.31;5007619;28;20284;-61
2022/10/23 03:06:08;;;;;;;45.08;15.93;;;;;;;8.85;95.76;97273.34;5007660;28;20093;-61
2022/10/23 03:08:50;;;;;;;19.42;10.00;;;;;;;9.15;95.66;97293.91;5006460;28;20054;-61
2022/10/23 03:11:17;;;;;;;15.67;8.73;;;;;;;9.40;95.97;97289.81;5005942;28;20061;-60
2022/10/23 03:13:44;;;;;;;11.05;5.82;;;;;;;8.85;93.35;97307.28;5007528;28;20143;-61
2022/10/23 03:16:11;;;;;;;19.95;9.73;;;;;;;8.40;97.85;97314.25;5005393;28;20073;-58
2022/10/23 03:18:37;;;;;;;26.42;11.02;;;;;;;8.63;96.17;97312.56;5007437;28;20568;-58
2022/10/23 03:21:04;;;;;;;21.70;11.50;;;;;;;8.82;95.41;97323.78;5005939;28;20083;-60
2022/10/23 03:23:30;;;;;;;16.50;9.85;;;;;;;9.00;94.57;97314.00;5005882;28;20103;-61
2022/10/23 03:25:57;;;;;;;21.15;12.65;;;;;;;9.03;94.07;97321.56;5007283;28;20100;-60
2022/10/23 03:28:23;;;;;;;21.23;11.70;;;;;;;9.16;93.51;97320.38;5005817;28;20141;-62
2022/10/23 03:30:51;;;;;;;21.35;11.52;;;;;;;9.26;92.97;97316.28;5006794;28;20081;-61
2022/10/23 03:33:17;;;;;;;23.88;15.35;;;;;;;9.30;92.47;97309.69;5006969;28;20508;-61
2022/10/23 03:35:44;;;;;;;18.17;11.52;;;;;;;9.23;92.04;97301.22;5006921;28;20077;-61
2022/10/23 03:38:11;;;;;;;26.67;14.85;;;;;;;9.47;92.04;97323.16;5007094;28;20084;-60
2022/10/23 03:40:37;;;;;;;28.27;16.45;;;;;;;9.58;93.11;97321.44;5006682;28;20085;-58
2022/10/23 03:43:04;;;;;;;29.98;16.98;;;;;;;9.19;92.63;97240.31;5006418;28;20685;-59
2022/10/23 03:45:31;;;;;;;21.98;12.98;;;;;;;9.88;91.26;97319.81;5006952;28;20409;-59
2022/10/23 03:47:58;;;;;;;22.77;11.10;;;;;;;9.55;91.35;97250.28;5006980;28;20144;-59
2022/10/23 03:50:24;;;;;;;34.63;18.20;;;;;;;9.98;90.78;97288.03;5006536;28;20092;-61
2022/10/23 03:52:51;;;;;;;21.15;11.50;;;;;;;10.01;89.86;97287.31;5006492;28;20058;-62
2022/10/23 03:55:17;;;;;;;21.67;10.40;;;;;;;9.92;89.77;97257.09;5006647;28;20165;-58
2022/10/23 03:57:44;;;;;;;14.55;7.82;;;;;;;10.28;88.61;97291.91;5006177;28;20866;-59
2022/10/23 04:00:11;;;;;;;16.77;9.35;;;;;;;10.38;88.10;97291.34;5006310;28;20167;-61
2022/10/23 04:02:38;;;;;;;17.08;8.65;;;;;;;10.50;87.45;97283.72;5006201;28;20534;-61
2022/10/23 04:05:05;;;;;;;20.33;8.82;;;;;;;10.66;85.93;97292.75;5006762;28;20046;-62
2022/10/23 04:07:32;;;;;;;18.83;9.80;;;;;;;10.88;83.24;97280.13;5006594;28;20085;-62
2022/10/23 04:09:58;;;;;;;22.60;11.10;;;;;;;11.10;81.18;97284.09;5004809;28;20085;-61
2022/10/23 04:12:25;;;;;;;16.30;8.10;;;;;;;11.03;80.48;97256.25;5006379;28;20105;-61
2022/10/23 04:14:51;;;;;;;20.85;9.70;;;;;;;11.30;80.04;97278.13;5006339;28;20080;-61
2022/10/23 04:17:18;;;;;;;15.65;9.68;;;;;;;11.41;79.41;97281.88;5005870;28;20088;-62
2022/10/23 04:19:44;;;;;;;22.35;9.77;;;;;;;11.26;80.23;97259.81;5006378;28;20046;-59
2022/10/23 04:22:11;;;;;;;22.30;8.70;;;;;;;11.37;80.09;97283.81;5006392;28;20053;-61
2022/10/23 04:24:38;;;;;;;21.73;10.00;;;;;;;11.02;80.31;97221.41;5005974;28;20144;-63
2022/10/23 04:27:04;;;;;;;17.95;10.27;;;;;;;10.82;81.68;97266.91;5006370;28;20084;-60
2022/10/23 04:29:31;;;;;;;19.58;10.30;;;;;;;10.82;80.79;97264.16;5006153;28;20078;-61
2022/10/23 04:31:58;;;;;;;16.58;10.45;;;;;;;10.90;81.73;97290.84;5005896;28;20089;-62
2022/10/23 04:34:24;;;;;;;17.40;10.60;;;;;;;10.81;82.14;97281.94;5005462;28;20089;-62
2022/10/23 04:36:51;;;;;;;17.90;10.77;;;;;;;10.59;83.34;97284.28;5004152;28;20132;-61
2022/10/23 04:39:18;;;;;;;21.63;13.55;;;;;;;10.54;84.50;97278.25;5005864;28;20156;-62
2022/10/23 04:41:44;;;;;;;25.48;12.65;;;;;;;10.21;84.88;97248.25;5005995;28;20060;-61
2022/10/23 04:44:11;;;;;;;32.40;12.02;;;;;;;10.66;84.00;97298.28;5005494;28;20089;-61
2022/10/23 04:46:37;;;;;;;23.00;11.35;;;;;;;9.90;84.26;97190.25;5005612;28;20128;-59
2022/10/23 04:49:04;;;;;;;21.13;10.93;;;;;;;10.56;84.56;97298.06;5005574;28;20061;-59
2022/10/23 04:51:31;;;;;;;21.75;10.55;;;;;;;10.44;84.86;97296.25;5005475;28;20100;-61
2022/10/23 04:53:57;;;;;;;21.83;9.63;;;;;;;10.74;82.94;97321.41;5005021;28;20544;-61
2022/10/23 04:56:24;;;;;;;21.52;9.05;;;;;;;10.87;81.33;97309.00;5005777;28;20081;-61
2022/10/23 04:58:51;;;;;;;19.80;9.98;;;;;;;11.14;79.93;97327.38;5006212;28;20306;-59
2022/10/23 05:01:18;;;;;;;18.98;9.45;;;;;;;10.77;80.05;97250.59;5005199;28;21046;-61
2022/10/23 05:03:45;;;;;;;32.92;17.92;;;;;;;11.37;79.24;97321.84;4996979;28;20073;-62
2022/10/23 05:06:11;;;;;;;40.30;20.92;;;;;;;11.49;78.69;97324.44;5009275;28;20136;-60
2022/10/23 05:08:38;;;;;;;31.25;15.15;;;;;;;11.53;78.22;97308.66;5004560;28;20137;-60
2022/10/23 05:11:05;;;;;;;27.05;15.52;;;;;;;11.72;77.55;97339.13;5005560;28;20089;-60
2022/10/23 05:13:31;;;;;;;26.83;13.48;;;;;;;11.29;77.02;97254.34;5005596;28;20129;-59
2022/10/23 05:15:59;;;;;;;27.58;10.23;;;;;;;12.23;74.51;97334.84;5003819;28;20132;-62
2022/10/23 05:18:31;;;;;;;21.33;8.25;;;;;;;12.51;72.79;97321.34;5004375;28;20108;-61
2022/10/23 05:21:05;;;;;;;24.27;10.20;;;;;;;12.37;72.10;97298.94;5005465;28;20050;-60
2022/10/23 05:23:34;;;;;;;30.23;9.48;;;;;;;12.85;71.45;97325.75;5005312;28;20512;-59
2022/10/23 05:26:02;;;;;;;22.77;9.40;;;;;;;13.09;71.08;97350.31;5004351;28;20364;-60
2022/10/23 05:28:28;;;;;;;20.38;8.98;;;;;;;13.39;68.91;97331.59;5005426;28;20088;-59
2022/10/23 05:30:58;;;;;;;17.45;6.82;;;;;;;13.62;66.37;97343.34;5003719;28;20115;-59
2022/10/23 05:33:26;;;;;;;20.40;7.30;;;;;;;13.88;65.59;97345.19;5004569;28;20093;-62
2022/10/23 05:35:53;;;;;;;20.33;6.75;;;;;;;14.00;65.20;97344.91;5004863;28;20053;-62
2022/10/23 05:38:20;;;;;;;18.33;6.72;;;;;;;14.39;63.19;97356.38;5005048;28;20217;-59
2022/10/23 05:40:47;;;;;;;23.45;8.95;;;;;;;14.27;63.29;97284.25;5004990;28;20076;-59
2022/10/23 05:43:13;;;;;;;15.00;8.27;;;;;;;14.84;62.50;97350.31;5004728;28;20050;-59
2022/10/23 05:45:40;;;;;;;22.02;7.60;;;;;;;14.96;61.30;97316.47;5004921;28;20085;-58
2022/10/23 05:48:07;;;;;;;18.20;6.60;;;;;;;15.55;59.99;97371.75;5004774;28;20068;-61
2022/10/23 05:50:48;;;;;;;16.55;6.13;;;;;;;15.74;59.38;97374.19;5004698;28;21025;-60
2022/10/23 05:53:14;;;;;;;16.75;6.50;;;;;;;16.03;58.67;97347.06;5005080;28;20068;-60
2022/10/23 05:55:41;;;;;;;21.13;8.15;;;;;;;16.24;58.16;97373.06;5004690;28;20073;-60
2022/10/23 05:58:07;;;;;;;12.55;5.80;;;;;;;16.56;56.88;97365.50;5004650;28;20077;-60
2022/10/23 06:00:34;;;;;;;19.40;7.03;;;;;;;16.57;58.37;97363.47;5004215;28;20054;-59
2022/10/23 06:03:01;;;;;;;18.48;6.25;;;;;;;16.73;57.46;97377.03;5004693;28;20129;-62
2022/10/23 06:05:27;;;;;;;20.10;8.38;;;;;;;17.00;57.15;97378.97;5005768;28;20089;-61
2022/10/23 06:07:58;;;;;;;20.13;8.00;;;;;;;17.40;57.08;97374.84;5008677;28;20088;-62
2022/10/23 06:10:26;;;;;;;14.27;6.82;;;;;;;18.03;57.20;97363.28;5008812;28;20057;-61
2022/10/23 06:12:52;;;;;;;21.38;5.68;;;;;;;18.67;56.34;97341.94;5008572;28;20504;-61
2022/10/23 06:15:19;;;;;;;18.60;4.38;;;;;;;19.47;53.06;97393.59;5007646;28;20145;-62
2022/10/23 06:17:45;;;;;;;16.45;4.45;;;;;;;19.56;52.08;97356.56;5008729;28;20054;-61
2022/10/23 06:20:12;;;;;;;10.93;4.25;;;;;;;19.93;52.22;97389.41;5008768;28;20108;-60
2022/10/23 06:22:39;;;;;;;14.70;5.63;;;;;;;20.13;51.88;97387.50;5008280;28;20089;-59
2022/10/23 06:25:06;;;;;;;10.15;5.07;;;;;;;20.15;50.92;97374.66;5008083;28;20575;-61
2022/10/23 06:27:33;;;;;;;9.90;4.70;;;;;;;20.35;50.82;97403.66;5008289;28;20119;-62
2022/10/23 06:30:00;;;;;;;12.60;4.28;;;;;;;20.36;51.43;97387.59;5008114;28;20562;-62
2022/10/23 06:32:31;;;;;;;14.02;6.30;;;;;;;20.58;51.11;97411.34;5007988;28;20561;-62
2022/10/23 06:34:57;;;;;;;9.90;4.40;;;;;;;20.74;50.86;97422.72;5007916;28;20100;-61
2022/10/23 06:37:24;;;;;;;8.95;4.45;;;;;;;20.92;50.32;97400.69;5008377;28;20089;-63
2022/10/23 06:39:51;;;;;;;10.25;4.03;;;;;;;20.84;49.46;97348.53;5008225;28;20096;-62
2022/10/23 06:42:17;;;;;;;12.25;3.80;;;;;;;21.30;49.44;97401.22;5008191;28;20136;-61
2022/10/23 06:44:44;;;;;;;8.50;4.05;;;;;;;21.00;49.09;97340.22;5006368;28;20578;-61
2022/10/23 06:47:12;;;;;;;10.30;5.35;;;;;;;21.35;48.58;97364.09;5008004;28;20513;-61
2022/10/23 06:49:39;;;;;;;9.15;4.50;;;;;;;21.72;48.22;97392.69;5007726;28;20050;-59
2022/10/23 06:52:06;;;;;;;8.98;5.22;;;;;;;21.79;47.66;97384.13;5007765;28;20061;-60
2022/10/23 06:54:52;;;;;;;13.55;5.80;;;;;;;21.78;46.71;97390.97;5007496;28;20060;-59
2022/10/23 06:57:19;;;;;;;6.70;4.82;;;;;;;21.87;46.16;97394.03;5007400;28;20130;-61
2022/10/23 06:59:45;;;;;;;12.60;4.70;;;;;;;21.85;45.80;97396.47;5007741;28;20120;-59
2022/10/23 07:02:12;;;;;;;10.43;4.75;;;;;;;20.84;44.76;97219.00;5008024;28;20152;-60
2022/10/23 07:04:40;;;;;;;11.85;4.93;;;;;;;22.06;43.97;97384.72;5007709;28;20147;-59
2022/10/23 07:07:06;;;;;;;10.63;5.22;;;;;;;22.10;44.13;97395.91;5007560;28;20579;-59
2022/10/23 07:09:35;;;;;;;12.25;5.20;;;;;;;21.82;43.92;97340.94;5007801;28;20133;-61
2022/10/23 07:12:01;;;;;;;11.45;4.72;;;;;;;22.19;43.91;97394.09;5007396;28;20157;-60
2022/10/23 07:14:30;;;;;;;9.60;4.80;;;;;;;22.30;43.86;97382.56;5008118;28;20108;-59
2022/10/23 07:16:57;;;;;;;10.70;4.88;;;;;;;22.30;44.14;97382.56;5006554;28;20521;-59
2022/10/23 07:19:24;;;;;;;10.13;4.60;;;;;;;22.41;43.87;97406.47;5007263;28;20136;-60
2022/10/23 07:21:51;;;;;;;6.97;4.10;;;;;;;22.35;44.02;97391.28;5007434;28;20082;-61
2022/10/23 07:24:17;;;;;;;9.27;4.28;;;;;;;22.48;43.99;97393.44;5007078;28;20085;-59
2022/10/23 07:26:44;;;;;;;15.98;4.57;;;;;;;21.45;43.71;97237.00;5007139;28;20141;-61
2022/10/23 07:29:11;;;;;;;11.40;4.63;;;;;;;22.52;43.66;97388.53;5005451;28;20093;-58
2022/10/23 07:31:38;;;;;;;9.05;5.20;;;;;;;22.30;43.37;97332.53;5006918;28;20058;-59
2022/10/23 07:34:05;;;;;;;9.20;4.22;;;;;;;22.24;43.68;97325.81;5007093;28;20089;-62
2022/10/23 07:36:31;;;;;;;8.52;4.53;;;;;;;22.60;43.80;97389.94;5006877;28;20061;-61
2022/10/23 07:38:58;;;;;;;8.10;3.78;;;;;;;22.56;43.81;97394.88;5006917;28;20586;-59
2022/10/23 07:41:24;;;;;;;5.38;3.35;;;;;;;;;;5005455;28;20054;-60
2022/10/23 07:43:51;;;;;;;9.52;4.90;;;;;;;22.59;44.11;97377.06;5006854;28;20096;-59
2022/10/23 07:46:18;;;;;;;8.30;3.70;;;;;;;22.73;43.43;97399.31;5004893;28;20137;-59
2022/10/23 07:48:44;;;;;;;9.32;3.65;;;;;;;22.53;43.75;97361.84;5006703;28;20081;-60
2022/10/23 07:51:14;;;;;;;8.05;3.80;;;;;;;22.86;43.24;97397.34;5004962;28;20061;-59
2022/10/23 07:53:41;;;;;;;10.73;4.63;;;;;;;22.89;43.28;97407.78;5005489;28;20088;-59
2022/10/23 07:56:28;;;;;;;13.60;4.57;;;;;;;22.83;43.67;97409.50;5006419;28;20081;-59
2022/10/23 07:58:55;;;;;;;10.10;5.07;;;;;;;22.74;44.08;97406.53;5006715;28;20057;-59
2022/10/23 08:01:41;;;;;;;9.30;4.53;;;;;;;22.75;43.97;97402.44;5006607;28;20104;-60
2022/10/23 08:04:09;;;;;;;7.80;4.07;;;;;;;22.78;44.19;97407.25;5006364;28;20126;-59
2022/10/23 08:06:36;;;;;;;6.88;3.08;;;;;;;22.76;44.60;97399.22;5006215;28;20084;-62
2022/10/23 08:09:03;;;;;;;13.05;5.53;;;;;;;22.64;45.01;97396.28;5006291;28;20074;-60
2022/10/23 08:11:34;;;;;;;6.50;2.90;;;;;;;22.77;44.98;97408.47;5006147;28;20050;-60
2022/10/23 08:14:03;;;;;;;6.55;3.55;;;;;;;22.96;43.94;97418.88;5006626;28;20128;-61
2022/10/23 08:16:35;;;;;;;13.00;3.70;;;;;;;22.93;43.94;97422.59;5006144;28;20084;-59
2022/10/23 08:19:04;;;;;;;4.18;3.75;;;;;;;22.97;44.20;97420.47;5006330;28;20127;-60
2022/10/23 08:21:31;;;;;;;10.13;4.57;;;;;;;22.93;44.21;97403.63;5005853;28;20049;-61
2022/10/23 08:23:59;;;;;;;5.15;3.67;;;;;;;22.83;43.68;97384.91;5006134;28;20081;-62
2022/10/23 08:26:30;;;;;;;7.28;3.15;;;;;;;22.83;43.94;97401.03;5005945;28;20129;-62
2022/10/23 08:29:00;;;;;;;3.50;2.50;;;;;;;22.98;43.54;97393.81;5005728;28;20085;-59
2022/10/23 08:31:27;;;;;;;4.78;2.20;;;;;;;23.26;43.53;97443.97;5005196;28;20134;-60
2022/10/23 08:33:53;;;;;;;5.88;3.08;;;;;;;23.21;42.86;97413.38;5005497;28;20050;-64
2022/10/23 08:36:26;;;;;;;2.95;2.53;;;;;;;23.40;42.35;97449.22;5005806;28;20057;-59
2022/10/23 08:38:57;;;;;;;3.45;2.28;;;;;;;22.88;42.52;97358.94;5005897;28;20107;-60
2022/10/23 08:41:26;;;;;;;3.58;2.00;;;;;;;23.34;42.13;97439.69;5004453;28;20580;-60
2022/10/23 08:44:26;;;;;;;2.22;2.10;;;;;;;23.28;42.29;97435.84;5005781;28;20145;-60
2022/10/23 08:47:16;;;;;;;3.55;1.70;;;;;;;23.10;41.30;97441.13;5005574;28;20130;-62
2022/10/23 08:50:15;;;;;;;2.05;1.67;;;;;;;23.11;41.53;97437.06;5005272;28;20509;-60
2022/10/23 08:52:51;;;;;;;2.33;2.05;;;;;;;22.99;39.55;97412.34;5009258;28;20068;-59
2022/10/23 08:55:33;;;;;;;4.18;1.65;;;;;;;22.53;40.63;97339.25;5006027;28;20054;-62
2022/10/23 08:58:09;;;;;;;4.90;2.17;;;;;;;23.16;38.83;97445.00;5005381;28;20064;-61
2022/10/23 09:00:36;;;;;;;1.70;1.60;;;;;;;22.82;38.74;97368.38;5005179;28;20085;-63
2022/10/23 09:03:04;;;;;;;2.47;1.70;;;;;;;23.49;39.14;97432.44;5005660;28;20299;-60
2022/10/23 09:05:54;;;;;;;3.55;2.15;;;;;;;23.39;36.61;97425.84;5005314;28;20081;-60
2022/10/23 09:09:07;;;;;;;6.10;2.13;;;;;;;23.44;36.40;97433.75;5019891;28;20041;-60
2022/10/23 09:11:48;;;;;;;4.40;1.52;;;;;;;23.52;37.69;97429.50;5005356;28;20053;-61
2022/10/23 09:14:26;;;;;;;5.80;1.63;;;;;;;23.41;37.65;97433.88;5005375;28;20491;-61
2022/10/23 09:17:25;;;;;;;2.80;1.70;;;;;;;22.91;37.98;97354.41;5005262;28;20093;-62
2022/10/23 09:20:20;;;;;;;2.20;2.00;;;;;;;23.62;38.15;97438.91;5005426;28;20133;-60
2022/10/23 09:22:59;;;;;;;3.03;2.10;;;;;;;23.41;38.52;97394.28;5004368;28;20143;-60
2022/10/23 09:25:30;;;;;;;4.72;2.20;;;;;;;23.87;38.75;97416.34;5003720;28;20141;-60
2022/10/23 09:27:58;;;;;;;5.95;1.90;;;;;;;23.92;37.77;97425.09;5005167;28;20120;-60
2022/10/23 09:30:32;;;;;;;3.03;1.60;;;;;;;24.00;37.28;97437.03;5003575;28;20084;-60
2022/10/23 09:33:00;;;;;;;2.20;2.00;;;;;;;23.89;36.07;97419.53;5004413;28;20093;-60
2022/10/23 09:35:30;;;;;;;1.90;1.80;;;;;;;23.60;36.69;97345.25;5004586;28;20046;-61
2022/10/23 09:37:56;;;;;;;2.05;1.88;;;;;;;24.05;36.59;97382.69;5003242;28;20058;-61
2022/10/23 09:40:40;;;;;;;2.30;1.90;;;;;;;22.46;35.73;97106.66;5004530;28;20077;-61
2022/10/23 09:43:16;;;;;;;3.08;2.42;;;;;;;24.44;34.65;97426.81;5004780;28;20140;-62
2022/10/23 09:45:43;;;;;;;2.42;1.85;;;;;;;24.40;35.18;97429.75;5004768;28;20136;-62
2022/10/23 09:48:16;;;;;;;5.38;2.55;;;;;;;24.05;35.41;97364.91;5004344;28;20418;-60
2022/10/23 09:50:55;;;;;;;5.70;2.78;;;;;;;24.62;35.29;97410.81;5004798;28;20132;-60
2022/10/23 09:53:46;;;;;;;1.85;1.75;;;;;;;24.67;35.29;97407.44;5005202;28;20093;-61
2022/10/23 09:56:24;;;;;;;2.15;2.03;;;;;;;24.81;35.85;97409.81;5003163;28;20396;-62
2022/10/23 09:59:12;;;;;;;3.88;2.33;;;;;;;24.78;36.09;97402.22;5004573;28;20077;-61
2022/10/23 10:01:54;;;;;;;2.38;2.17;;;;;;;24.87;36.28;97401.50;5003262;28;20155;-62
2022/10/23 10:04:40;;;;;;;4.70;2.72;;;;;;;24.96;35.65;97399.56;5005049;28;20058;-63
2022/10/23 10:07:28;;;;;;;2.40;2.20;;;;;;;24.83;33.93;97393.13;5004354;28;20129;-63
2022/10/23 10:10:00;;;;;;;2.47;2.28;;;;;;;24.75;34.08;97374.81;5004949;28;20046;-62
2022/10/23 10:12:36;;;;;;;2.30;2.20;;;;;;;25.04;34.67;97392.41;5004531;28;20137;-62
2022/10/23 10:15:34;;;;;;;3.22;2.75;;;;;;;25.19;34.76;97399.19;5003123;28;20054;-59
2022/10/23 10:18:42;;;;;;;2.30;2.10;;;;;;;25.16;34.18;97400.09;5002847;28;20093;-60
2022/10/23 10:21:11;;;;;;;3.95;2.20;;;;;;;25.14;33.72;97396.94;5001069;28;20144;-61
2022/10/23 10:23:40;;;;;;;2.63;2.28;;;;;;;25.11;34.12;97397.84;5001347;28;20578;-60
2022/10/23 10:26:16;;;;;;;2.22;2.10;;;;;;;25.26;34.35;97381.91;5009279;28;20092;-59
2022/10/23 10:28:52;;;;;;;3.38;2.50;;;;;;;25.42;34.31;97371.69;5004570;28;20064;-62
2022/10/23 10:31:49;;;;;;;2.65;2.42;;;;;;;25.13;33.72;97330.09;5003064;28;20077;-60
2022/10/23 10:34:37;;;;;;;2.58;2.38;;;;;;;25.46;34.25;97375.97;5004443;28;20133;-60
2022/10/23 10:37:48;;;;;;;2.65;2.25;;;;;;;25.57;33.78;97367.06;5004864;28;20088;-60
2022/10/23 10:40:26;;;;;;;2.22;2.10;;;;;;;25.64;33.25;97366.81;5003007;28;20137;-62
2022/10/23 10:43:47;;;;;;;4.50;2.60;;;;;;;25.67;33.54;97360.19;5004460;28;20077;-61
2022/10/23 10:46:28;;;;;;;3.53;2.90;;;;;;;25.75;32.81;97373.66;5001230;28;20062;-62
2022/10/23 10:49:20;;;;;;;4.82;2.67;;;;;;;25.70;33.18;97365.75;5004114;28;20162;-62
2022/10/23 10:51:47;;;;;;;5.55;2.45;;;;;;;25.54;33.29;97356.63;5004021;28;20081;-60
2022/10/23 10:54:16;;;;;;;4.18;3.33;;;;;;;25.58;33.23;97357.28;5008072;28;20053;-62
2022/10/23 10:56:46;;;;;;;4.93;3.35;;;;;;;25.67;33.15;97348.84;5007911;28;20575;-61
2022/10/23 10:59:37;;;;;;;4.13;2.55;;;;;;;25.27;33.07;97309.75;5007781;28;20096;-60
2022/10/23 11:02:27;;;;;;;8.25;4.55;;;;;;;25.60;33.18;97332.06;5007785;28;20500;-59
2022/10/23 11:05:11;;;;;;;3.25;2.95;;;;;;;25.53;32.90;97304.00;5008264;28;20160;-59
2022/10/23 11:08:04;;;;;;;5.43;3.45;;;;;;;25.89;32.76;97343.94;5007874;28;20152;-61
2022/10/23 11:10:32;;;;;;;4.05;2.70;;;;;;;25.76;32.29;97314.84;5007481;28;20058;-60
2022/10/23 11:12:59;;;;;;;4.47;2.55;;;;;;;25.94;32.71;97346.19;5007254;28;20144;-61
2022/10/23 11:15:37;;;;;;;4.13;3.70;;;;;;;25.47;32.27;97260.41;5007119;28;20146;-61
2022/10/23 11:18:13;;;;;;;3.40;2.85;;;;;;;26.05;31.67;97341.69;5007562;28;20057;-62
2022/10/23 11:20:56;;;;;;;3.28;2.65;;;;;;;26.09;31.48;97335.88;5007456;28;20227;-60
2022/10/23 11:23:44;;;;;;;3.47;3.03;;;;;;;26.17;31.36;97342.84;5007674;28;20132;-60
2022/10/23 11:26:50;;;;;;;2.63;2.42;;;;;;;26.21;30.77;97332.94;5007172;28;20085;-61
2022/10/23 11:29:35;;;;;;;2.70;2.50;;;;;;;25.94;31.24;97334.81;5004176;28;20595;-62
2022/10/23 11:32:16;;;;;;;3.35;2.50;;;;;;;25.97;31.44;97317.63;5004080;28;20520;-63
2022/10/23 11:35:17;;;;;;;3.17;2.92;;;;;;;26.10;31.17;97320.41;5005700;28;20100;-62
2022/10/23 11:37:43;;;;;;;3.97;2.83;;;;;;;26.02;30.64;97313.44;5006668;28;20085;-62
2022/10/23 11:40:10;;;;;;;2.83;2.63;;;;;;;26.06;30.60;97325.44;5006945;28;20443;-62
2022/10/23 11:42:40;;;;;;;3.15;2.63;;;;;;;26.13;31.17;97325.19;5006881;28;20046;-61
2022/10/23 11:45:38;;;;;;;4.97;3.25;;;;;;;26.15;31.09;97316.97;5006884;28;20175;-62
2022/10/23 11:48:37;;;;;;;4.32;3.00;;;;;;;26.20;30.59;97310.66;5006597;28;20054;-62
2022/10/23 11:51:04;;;;;;;3.45;3.10;;;;;;;26.08;30.30;97315.19;5006831;28;20080;-61
2022/10/23 11:53:31;;;;;;;11.73;3.30;;;;;;;26.08;30.24;97312.34;5006578;28;20068;-61
2022/10/23 11:56:23;;;;;;;4.95;3.25;;;;;;;26.12;30.33;97313.00;5006647;28;20054;-61